createdAt,value
2018-10-06T00:00:44.873Z,12.10
2018-10-06T00:03:13.094Z,12.00
2018-10-06T00:05:41.280Z,12.00
2018-10-06T00:08:09.485Z,12.00
2018-10-06T00:10:37.844Z,12.10
2018-10-06T00:13:06.681Z,12.00
2018-10-06T00:15:34.921Z,11.90
2018-10-06T00:18:03.129Z,11.90
2018-10-06T00:20:31.365Z,11.90
2018-10-06T00:22:59.640Z,11.90
2018-10-06T00:25:27.861Z,11.90
2018-10-06T00:27:56.077Z,11.90
2018-10-06T00:30:24.342Z,11.80
2018-10-06T00:32:52.577Z,11.80
2018-10-06T00:35:20.909Z,11.80
2018-10-06T00:37:49.173Z,11.70
2018-10-06T00:40:17.443Z,11.70
2018-10-06T00:42:45.698Z,11.70
2018-10-06T00:45:14.036Z,11.60
2018-10-06T00:47:42.278Z,11.60
2018-10-06T00:50:10.508Z,11.60
2018-10-06T00:52:38.731Z,11.60
2018-10-06T00:55:06.991Z,11.60
2018-10-06T00:57:42.847Z,11.70
2018-10-06T01:00:11.112Z,11.70
2018-10-06T01:02:39.338Z,11.60
2018-10-06T01:05:07.625Z,11.60
2018-10-06T01:07:35.920Z,11.60
2018-10-06T01:10:04.324Z,11.60
2018-10-06T01:12:32.589Z,11.60
2018-10-06T01:15:00.877Z,11.50
2018-10-06T01:17:29.100Z,11.50
2018-10-06T01:19:57.343Z,11.50
2018-10-06T01:22:25.555Z,11.50
2018-10-06T01:24:53.788Z,11.50
2018-10-06T01:27:22.009Z,11.50
2018-10-06T01:29:50.284Z,11.50
2018-10-06T01:32:18.510Z,11.40
2018-10-06T01:34:46.820Z,11.40
2018-10-06T01:37:15.006Z,11.40
2018-10-06T01:39:43.224Z,11.40
2018-10-06T01:42:11.641Z,11.30
2018-10-06T01:44:39.818Z,11.40
2018-10-06T01:47:08.033Z,11.30
2018-10-06T01:49:36.292Z,11.30
2018-10-06T01:52:04.500Z,11.30
2018-10-06T01:54:32.713Z,11.30
2018-10-06T01:57:00.961Z,11.30
2018-10-06T01:59:29.219Z,11.20
2018-10-06T02:01:57.456Z,11.20
2018-10-06T02:04:26.429Z,11.20
2018-10-06T02:06:55.973Z,11.20
2018-10-06T02:09:24.161Z,11.20
2018-10-06T02:11:52.914Z,11.20
2018-10-06T02:14:21.401Z,11.30
2018-10-06T02:16:49.719Z,11.30
2018-10-06T02:19:17.948Z,11.30
2018-10-06T02:21:46.141Z,11.30
2018-10-06T02:24:14.337Z,11.30
2018-10-06T02:26:42.567Z,11.30
2018-10-06T02:29:10.836Z,11.30
2018-10-06T02:31:39.046Z,11.30
2018-10-06T02:34:07.307Z,11.30
2018-10-06T02:36:35.543Z,11.30
2018-10-06T02:39:04.876Z,11.20
2018-10-06T02:41:33.128Z,11.30
2018-10-06T02:44:01.417Z,11.30
2018-10-06T02:46:29.653Z,11.30
2018-10-06T02:48:57.897Z,11.30
2018-10-06T02:51:26.055Z,11.20
2018-10-06T02:53:54.270Z,11.20
2018-10-06T02:56:22.545Z,11.20
2018-10-06T02:58:50.740Z,11.20
2018-10-06T03:01:18.925Z,11.20
2018-10-06T03:03:47.168Z,11.20
2018-10-06T03:06:15.364Z,11.10
2018-10-06T03:08:43.602Z,11.20
2018-10-06T03:11:11.819Z,11.20
2018-10-06T03:13:40.000Z,11.20
2018-10-06T03:16:08.474Z,11.20
2018-10-06T03:18:36.701Z,11.10
2018-10-06T03:21:04.913Z,11.10
2018-10-06T03:23:33.272Z,11.10
2018-10-06T03:26:01.485Z,11.20
2018-10-06T03:28:29.782Z,11.20
2018-10-06T03:30:57.979Z,11.20
2018-10-06T03:33:26.188Z,11.20
2018-10-06T03:35:54.573Z,11.10
2018-10-06T03:38:22.840Z,11.10
2018-10-06T03:40:51.062Z,11.10
2018-10-06T03:43:19.278Z,11.00
2018-10-06T03:45:47.489Z,11.00
2018-10-06T03:48:15.745Z,11.00
2018-10-06T03:50:43.942Z,10.90
2018-10-06T03:53:12.160Z,10.90
2018-10-06T03:55:40.356Z,10.90
2018-10-06T03:58:08.575Z,10.90
2018-10-06T04:00:36.815Z,10.90
2018-10-06T04:03:05.008Z,10.90
2018-10-06T04:05:33.259Z,10.90
2018-10-06T04:08:01.481Z,10.80
2018-10-06T04:10:29.670Z,10.80
2018-10-06T04:12:58.001Z,10.80
2018-10-06T04:15:26.157Z,10.80
2018-10-06T04:17:54.346Z,10.80
2018-10-06T04:20:22.672Z,10.70
2018-10-06T04:22:50.895Z,10.80
2018-10-06T04:25:19.076Z,10.80
2018-10-06T04:27:47.304Z,10.80
2018-10-06T04:30:15.613Z,10.70
2018-10-06T04:32:43.810Z,10.70
2018-10-06T04:35:12.036Z,10.70
2018-10-06T04:37:40.243Z,10.70
2018-10-06T04:40:08.528Z,10.70
2018-10-06T04:42:36.777Z,10.70
2018-10-06T04:45:05.029Z,10.80
2018-10-06T04:47:33.624Z,10.80
2018-10-06T04:50:01.901Z,10.80
2018-10-06T04:52:30.074Z,10.90
2018-10-06T04:54:58.313Z,10.90
2018-10-06T04:57:26.510Z,11.00
2018-10-06T04:59:54.913Z,11.00
2018-10-06T05:02:23.179Z,11.00
2018-10-06T05:04:51.406Z,11.00
2018-10-06T05:07:19.834Z,11.00
2018-10-06T05:09:48.060Z,11.00
2018-10-06T05:12:16.303Z,11.00
2018-10-06T05:14:44.585Z,11.00
2018-10-06T05:17:12.797Z,10.90
2018-10-06T05:19:41.016Z,10.90
2018-10-06T05:22:09.246Z,11.00
2018-10-06T05:24:37.553Z,11.00
2018-10-06T05:27:06.217Z,11.10
2018-10-06T05:29:34.862Z,11.10
2018-10-06T05:32:03.162Z,11.10
2018-10-06T05:34:31.377Z,11.10
2018-10-06T05:36:59.626Z,11.10
2018-10-06T05:39:27.851Z,11.20
2018-10-06T05:41:56.065Z,11.20
2018-10-06T05:44:24.285Z,11.20
2018-10-06T05:46:52.527Z,11.20
2018-10-06T05:49:20.815Z,11.10
2018-10-06T05:51:49.133Z,11.20
2018-10-06T05:54:17.438Z,11.20
2018-10-06T05:56:45.689Z,11.20
2018-10-06T05:59:15.050Z,11.20
2018-10-06T06:01:43.431Z,11.30
2018-10-06T06:04:11.680Z,11.30
2018-10-06T06:06:39.880Z,11.30
2018-10-06T06:09:08.260Z,11.30
2018-10-06T06:11:36.550Z,11.30
2018-10-06T06:14:04.788Z,11.40
2018-10-06T06:16:32.956Z,11.40
2018-10-06T06:19:01.194Z,11.40
2018-10-06T06:21:29.442Z,11.50
2018-10-06T06:23:57.713Z,11.60
2018-10-06T06:26:25.875Z,11.60
2018-10-06T06:28:54.099Z,11.60
2018-10-06T06:31:22.399Z,11.60
2018-10-06T06:33:50.554Z,11.60
2018-10-06T06:36:18.773Z,11.70
2018-10-06T06:38:47.054Z,11.70
2018-10-06T06:41:15.501Z,11.80
2018-10-06T06:43:43.868Z,11.80
2018-10-06T06:46:11.999Z,11.90
2018-10-06T06:48:40.373Z,12.00
2018-10-06T06:51:08.578Z,12.10
2018-10-06T06:53:36.773Z,12.20
2018-10-06T06:56:05.000Z,12.20
2018-10-06T06:58:33.326Z,12.30
2018-10-06T07:01:02.660Z,12.30
2018-10-06T07:03:30.850Z,12.30
2018-10-06T07:05:59.068Z,12.30
2018-10-06T07:08:27.470Z,12.30
2018-10-06T07:10:55.758Z,12.50
2018-10-06T07:13:25.014Z,12.70
2018-10-06T07:15:53.394Z,12.80
2018-10-06T07:18:21.662Z,12.90
2018-10-06T07:20:49.853Z,13.00
2018-10-06T07:23:18.051Z,13.20
2018-10-06T07:25:46.293Z,13.20
2018-10-06T07:28:14.593Z,13.30
2018-10-06T07:30:42.820Z,13.30
2018-10-06T07:33:11.332Z,13.40
2018-10-06T07:35:39.685Z,13.50
2018-10-06T07:38:07.884Z,13.60
2018-10-06T07:40:36.095Z,13.70
2018-10-06T07:43:04.484Z,13.80
2018-10-06T07:45:32.733Z,13.80
2018-10-06T07:48:01.334Z,13.90
2018-10-06T07:50:29.540Z,14.00
2018-10-06T07:52:57.817Z,14.00
2018-10-06T07:55:25.985Z,14.10
2018-10-06T07:57:56.735Z,14.20
2018-10-06T08:00:24.907Z,14.30
2018-10-06T08:02:53.229Z,14.40
2018-10-06T08:05:21.438Z,14.60
2018-10-06T08:07:49.704Z,14.80
2018-10-06T08:10:18.073Z,14.90
2018-10-06T08:12:46.285Z,14.90
2018-10-06T08:15:14.589Z,15.00
2018-10-06T08:17:42.813Z,15.10
2018-10-06T08:20:11.053Z,15.10
2018-10-06T08:22:39.440Z,15.20
2018-10-06T08:25:07.644Z,15.40
2018-10-06T08:27:35.888Z,15.50
2018-10-06T08:30:04.280Z,15.60
2018-10-06T08:32:32.453Z,15.70
2018-10-06T08:35:00.654Z,15.90
2018-10-06T08:37:28.969Z,15.90
2018-10-06T08:39:57.124Z,15.90
2018-10-06T08:42:25.346Z,16.00
2018-10-06T08:44:53.635Z,16.10
2018-10-06T08:47:22.100Z,16.30
2018-10-06T08:49:50.309Z,16.40
2018-10-06T08:52:18.572Z,16.40
2018-10-06T08:54:47.041Z,16.60
2018-10-06T08:57:15.261Z,16.70
2018-10-06T08:59:43.824Z,16.70
2018-10-06T09:02:12.340Z,16.80
2018-10-06T09:04:40.615Z,16.90
2018-10-06T09:07:09.257Z,16.90
2018-10-06T09:09:37.790Z,17.00
2018-10-06T09:12:06.151Z,17.20
2018-10-06T09:14:34.328Z,17.30
2018-10-06T09:17:02.561Z,17.40
2018-10-06T09:19:30.736Z,17.50
2018-10-06T09:21:58.960Z,17.50
2018-10-06T09:24:27.173Z,17.70
2018-10-06T09:26:55.930Z,17.70
2018-10-06T09:29:24.426Z,17.70
2018-10-06T09:31:53.132Z,17.80
2018-10-06T09:34:21.334Z,17.90
2018-10-06T09:36:49.891Z,18.00
2018-10-06T09:39:18.113Z,18.20
2018-10-06T09:41:46.760Z,18.30
2018-10-06T09:44:15.234Z,18.40
2018-10-06T09:46:43.503Z,18.50
2018-10-06T09:49:11.852Z,18.50
2018-10-06T09:51:40.217Z,18.60
2018-10-06T09:54:08.602Z,18.80
2018-10-06T09:56:37.257Z,18.70
2018-10-06T09:59:05.815Z,18.80
2018-10-06T10:01:39.548Z,18.90
2018-10-06T10:04:10.878Z,19.00
2018-10-06T10:06:39.757Z,19.10
2018-10-06T10:09:09.620Z,19.40
2018-10-06T10:11:38.338Z,19.40
2018-10-06T10:14:06.964Z,19.40
2018-10-06T10:16:35.548Z,19.50
2018-10-06T10:19:04.190Z,19.60
2018-10-06T10:21:32.517Z,19.90
2018-10-06T10:24:00.887Z,19.90
2018-10-06T10:26:29.326Z,20.10
2018-10-06T10:28:58.032Z,20.20
2018-10-06T10:31:26.495Z,20.40
2018-10-06T10:33:54.776Z,20.50
2018-10-06T10:36:23.334Z,20.70
2018-10-06T10:38:52.165Z,20.80
2018-10-06T10:41:20.687Z,20.90
2018-10-06T10:43:49.182Z,21.00
2018-10-06T10:46:17.358Z,21.00
2018-10-06T10:48:45.643Z,21.10
2018-10-06T10:51:14.222Z,21.30
2018-10-06T10:53:42.520Z,21.50
2018-10-06T10:56:11.088Z,21.60
2018-10-06T10:58:39.326Z,21.70
2018-10-06T11:01:07.760Z,21.80
2018-10-06T11:03:36.920Z,21.80
2018-10-06T11:06:05.531Z,21.90
2018-10-06T11:08:34.063Z,21.90
2018-10-06T11:11:02.237Z,22.00
2018-10-06T11:13:30.670Z,22.00
2018-10-06T11:15:58.914Z,22.10
2018-10-06T11:18:27.209Z,22.10
2018-10-06T11:20:55.478Z,22.40
2018-10-06T11:23:23.751Z,22.40
2018-10-06T11:25:51.941Z,22.40
2018-10-06T11:28:20.177Z,22.60
2018-10-06T11:30:48.376Z,22.70
2018-10-06T11:33:16.744Z,22.70
2018-10-06T11:35:44.889Z,22.90
2018-10-06T11:38:13.167Z,23.20
2018-10-06T11:40:41.487Z,23.40
2018-10-06T11:43:09.680Z,23.50
2018-10-06T11:45:37.986Z,23.60
2018-10-06T11:48:06.229Z,23.50
2018-10-06T11:50:34.497Z,23.70
2018-10-06T11:53:02.721Z,23.90
2018-10-06T11:55:30.885Z,24.00
2018-10-06T11:57:59.160Z,24.00
2018-10-06T12:00:27.491Z,23.90
2018-10-06T12:02:55.758Z,24.10
2018-10-06T12:05:24.007Z,24.00
2018-10-06T12:07:52.244Z,24.30
2018-10-06T12:10:20.513Z,24.40
2018-10-06T12:12:48.770Z,24.50
2018-10-06T12:15:16.984Z,24.50
2018-10-06T12:17:45.214Z,24.60
2018-10-06T12:20:13.421Z,24.70
2018-10-06T12:22:41.624Z,24.80
2018-10-06T12:25:09.797Z,24.90
2018-10-06T12:27:38.621Z,24.90
2018-10-06T12:30:06.808Z,24.80
2018-10-06T12:32:35.080Z,24.60
2018-10-06T12:35:03.332Z,24.70
2018-10-06T12:37:31.432Z,24.60
2018-10-06T12:39:59.656Z,24.60
2018-10-06T12:42:28.388Z,24.50
2018-10-06T12:44:56.595Z,24.70
2018-10-06T12:47:24.864Z,24.90
2018-10-06T12:49:53.117Z,24.70
2018-10-06T12:52:21.490Z,24.60
2018-10-06T12:54:49.689Z,24.80
2018-10-06T12:57:17.957Z,24.80
2018-10-06T12:59:46.140Z,24.90
2018-10-06T13:02:14.324Z,25.10
2018-10-06T13:04:42.698Z,25.20
2018-10-06T13:07:10.856Z,25.30
2018-10-06T13:09:39.072Z,25.40
2018-10-06T13:12:07.297Z,25.50
2018-10-06T13:14:35.532Z,25.70
2018-10-06T13:17:03.676Z,25.80
2018-10-06T13:19:31.905Z,25.90
2018-10-06T13:22:00.076Z,26.10
2018-10-06T13:24:28.240Z,26.10
2018-10-06T13:26:56.452Z,26.10
2018-10-06T13:29:24.672Z,25.90
2018-10-06T13:31:52.947Z,26.00
2018-10-06T13:34:21.059Z,25.90
2018-10-06T13:36:49.221Z,25.70
2018-10-06T13:39:17.475Z,25.70
2018-10-06T13:41:45.679Z,25.60
2018-10-06T13:44:13.885Z,25.70
2018-10-06T13:46:42.240Z,25.70
2018-10-06T13:49:10.434Z,25.50
2018-10-06T13:51:38.605Z,25.20
2018-10-06T13:54:06.892Z,25.40
2018-10-06T13:56:35.250Z,25.30
2018-10-06T13:59:03.424Z,25.30
2018-10-06T14:01:31.643Z,25.20
2018-10-06T14:03:59.852Z,25.30
2018-10-06T14:06:28.051Z,25.30
2018-10-06T14:08:56.309Z,25.30
2018-10-06T14:11:24.483Z,25.40
2018-10-06T14:13:52.736Z,25.30
2018-10-06T14:16:20.926Z,25.20
2018-10-06T14:18:49.213Z,25.30
2018-10-06T14:21:17.588Z,25.20
2018-10-06T14:23:46.161Z,25.00
2018-10-06T14:26:14.400Z,25.10
2018-10-06T14:28:42.681Z,25.10
2018-10-06T14:31:10.845Z,25.10
2018-10-06T14:33:39.054Z,25.10
2018-10-06T14:36:13.898Z,25.10
2018-10-06T14:38:42.964Z,25.20
2018-10-06T14:41:11.131Z,25.30
2018-10-06T14:43:39.299Z,25.30
2018-10-06T14:46:07.736Z,25.10
2018-10-06T14:48:36.101Z,25.00
2018-10-06T14:51:04.295Z,25.00
2018-10-06T14:53:32.432Z,25.10
2018-10-06T14:56:00.622Z,25.00
2018-10-06T14:58:28.840Z,25.00
2018-10-06T15:00:57.134Z,25.10
2018-10-06T15:03:25.316Z,25.00
2018-10-06T15:05:53.599Z,24.90
2018-10-06T15:08:21.920Z,25.00
2018-10-06T15:10:50.112Z,24.80
2018-10-06T15:13:18.368Z,24.80
2018-10-06T15:15:46.584Z,24.70
2018-10-06T15:18:14.842Z,24.70
2018-10-06T15:20:44.018Z,24.70
2018-10-06T15:23:12.290Z,24.60
2018-10-06T15:25:40.940Z,24.40
2018-10-06T15:28:09.164Z,24.50
2018-10-06T15:30:37.384Z,24.40
2018-10-06T15:33:05.641Z,24.40
2018-10-06T15:35:33.839Z,24.30
2018-10-06T15:38:02.013Z,24.30
2018-10-06T15:40:30.360Z,24.30
2018-10-06T15:42:58.755Z,24.40
2018-10-06T15:45:26.884Z,24.40
2018-10-06T15:47:55.318Z,24.40
2018-10-06T15:50:23.501Z,24.40
2018-10-06T15:52:51.763Z,24.30
2018-10-06T15:55:20.002Z,24.30
2018-10-06T15:57:48.264Z,24.30
2018-10-06T16:00:16.437Z,24.20
2018-10-06T16:02:44.729Z,24.30
2018-10-06T16:05:12.929Z,24.10
2018-10-06T16:07:41.084Z,24.10
2018-10-06T16:10:09.398Z,24.00
2018-10-06T16:12:37.637Z,24.00
2018-10-06T16:15:05.844Z,23.90
2018-10-06T16:17:34.061Z,23.80
2018-10-06T16:20:02.258Z,23.70
2018-10-06T16:22:30.473Z,23.60
2018-10-06T16:24:58.756Z,23.60
2018-10-06T16:27:27.051Z,23.40
2018-10-06T16:29:55.143Z,23.20
2018-10-06T16:32:23.356Z,23.20
2018-10-06T16:34:51.592Z,23.10
2018-10-06T16:37:19.805Z,23.00
2018-10-06T16:39:48.050Z,23.00
2018-10-06T16:42:16.205Z,22.80
2018-10-06T16:44:44.429Z,22.60
2018-10-06T16:47:12.704Z,22.50
2018-10-06T16:49:41.258Z,22.40
2018-10-06T16:52:09.447Z,22.30
2018-10-06T16:54:37.994Z,22.20
2018-10-06T16:57:06.413Z,22.00
2018-10-06T16:59:34.592Z,21.80
2018-10-06T17:02:03.962Z,21.70
2018-10-06T17:04:32.013Z,21.60
2018-10-06T17:07:00.678Z,21.50
2018-10-06T17:09:29.000Z,21.40
2018-10-06T17:11:57.342Z,21.30
2018-10-06T17:14:25.794Z,21.10
2018-10-06T17:16:54.160Z,21.00
2018-10-06T17:19:22.632Z,20.90
2018-10-06T17:21:51.011Z,20.90
2018-10-06T17:24:19.200Z,20.80
2018-10-06T17:26:47.453Z,20.70
2018-10-06T17:29:15.678Z,20.60
2018-10-06T17:31:43.928Z,20.50
2018-10-06T17:34:12.283Z,20.50
2018-10-06T17:36:40.518Z,20.50
2018-10-06T17:39:08.909Z,20.40
2018-10-06T17:41:37.309Z,20.30
2018-10-06T17:44:05.512Z,20.20
2018-10-06T17:46:33.862Z,20.20
2018-10-06T17:49:02.102Z,20.10
2018-10-06T17:51:30.375Z,20.00
2018-10-06T17:53:58.969Z,19.80
2018-10-06T17:56:27.309Z,19.70
2018-10-06T17:58:55.682Z,19.60
2018-10-06T18:01:23.900Z,19.60
2018-10-06T18:03:52.121Z,19.60
2018-10-06T18:06:20.418Z,19.50
2018-10-06T18:08:48.754Z,19.40
2018-10-06T18:11:17.121Z,19.30
2018-10-06T18:13:45.832Z,19.30
2018-10-06T18:16:14.068Z,19.20
2018-10-06T18:18:42.502Z,19.20
2018-10-06T18:21:10.809Z,19.10
2018-10-06T18:23:38.932Z,19.00
2018-10-06T18:26:07.386Z,19.00
2018-10-06T18:28:35.622Z,18.90
2018-10-06T18:31:03.898Z,18.90
2018-10-06T18:33:32.323Z,18.90
2018-10-06T18:36:00.786Z,18.80
2018-10-06T18:38:29.036Z,18.90
2018-10-06T18:40:57.406Z,18.80
2018-10-06T18:43:25.650Z,18.70
2018-10-06T18:45:53.785Z,18.60
2018-10-06T18:48:22.435Z,18.50
2018-10-06T18:50:50.722Z,18.40
2018-10-06T18:53:18.896Z,18.40
2018-10-06T18:55:47.132Z,18.40
2018-10-06T18:58:15.328Z,18.40
2018-10-06T19:00:43.549Z,18.30
2018-10-06T19:03:11.837Z,18.30
2018-10-06T19:05:39.972Z,18.20
2018-10-06T19:08:08.205Z,18.20
2018-10-06T19:10:36.424Z,18.10
2018-10-06T19:13:04.618Z,18.10
2018-10-06T19:15:32.818Z,18.00
2018-10-06T19:18:01.067Z,18.00
2018-10-06T19:20:29.263Z,17.90
2018-10-06T19:22:57.514Z,17.80
2018-10-06T19:25:25.752Z,17.80
2018-10-06T19:27:54.014Z,17.70
2018-10-06T19:30:22.242Z,17.70
2018-10-06T19:32:50.479Z,17.60
2018-10-06T19:35:18.711Z,17.50
2018-10-06T19:37:47.077Z,17.50
2018-10-06T19:40:15.413Z,17.40
2018-10-06T19:42:43.591Z,17.40
2018-10-06T19:45:11.784Z,17.40
2018-10-06T19:47:39.974Z,17.30
2018-10-06T19:50:08.455Z,17.20
2018-10-06T19:52:36.893Z,17.20
2018-10-06T19:55:05.112Z,17.20
2018-10-06T19:57:33.344Z,17.10
2018-10-06T20:00:01.595Z,17.10
2018-10-06T20:02:29.841Z,17.00
2018-10-06T20:04:58.216Z,17.00
2018-10-06T20:07:26.553Z,16.90
2018-10-06T20:09:54.853Z,16.90
2018-10-06T20:12:23.243Z,16.80
2018-10-06T20:14:51.511Z,16.80
2018-10-06T20:17:20.225Z,16.70
2018-10-06T20:19:48.696Z,16.70
2018-10-06T20:22:17.005Z,16.80
2018-10-06T20:24:45.226Z,16.80
2018-10-06T20:27:13.437Z,16.70
2018-10-06T20:29:41.754Z,16.70
2018-10-06T20:32:09.950Z,16.60
2018-10-06T20:34:38.213Z,16.70
2018-10-06T20:37:06.443Z,16.60
2018-10-06T20:39:34.665Z,16.60
2018-10-06T20:42:03.197Z,16.60
2018-10-06T20:44:31.504Z,16.60
2018-10-06T20:46:59.658Z,16.70
2018-10-06T20:49:27.864Z,16.70
2018-10-06T20:51:56.025Z,16.70
2018-10-06T20:54:24.280Z,16.60
2018-10-06T20:56:52.500Z,16.50
2018-10-06T20:59:20.714Z,16.40
2018-10-06T21:01:49.111Z,16.40
2018-10-06T21:04:17.320Z,16.40
2018-10-06T21:06:45.534Z,16.40
2018-10-06T21:09:14.114Z,16.40
2018-10-06T21:11:42.723Z,16.30
2018-10-06T21:14:10.922Z,16.30
2018-10-06T21:16:39.119Z,16.20
2018-10-06T21:19:07.865Z,16.20
2018-10-06T21:21:36.104Z,16.10
2018-10-06T21:24:04.289Z,16.10
2018-10-06T21:26:32.526Z,16.00
2018-10-06T21:29:00.718Z,15.90
2018-10-06T21:31:28.949Z,16.00
2018-10-06T21:33:57.139Z,16.00
2018-10-06T21:36:25.394Z,16.00
2018-10-06T21:38:53.675Z,15.80
2018-10-06T21:41:21.804Z,15.80
2018-10-06T21:43:50.100Z,15.70
2018-10-06T21:46:18.422Z,15.70
2018-10-06T21:48:46.616Z,15.80
2018-10-06T21:51:14.807Z,15.80
2018-10-06T21:53:43.027Z,15.70
2018-10-06T21:56:11.277Z,15.60
2018-10-06T21:58:39.462Z,15.50
2018-10-06T22:01:11.737Z,15.50
2018-10-06T22:03:40.622Z,15.60
2018-10-06T22:06:08.844Z,15.80
2018-10-06T22:08:37.056Z,15.80
2018-10-06T22:11:05.243Z,15.70
2018-10-06T22:13:33.475Z,15.60
2018-10-06T22:16:01.933Z,15.50
2018-10-06T22:18:30.153Z,15.40
2018-10-06T22:20:58.373Z,15.30
2018-10-06T22:23:26.839Z,15.30
2018-10-06T22:25:55.075Z,15.40
2018-10-06T22:28:23.353Z,15.40
2018-10-06T22:30:51.558Z,15.30
2018-10-06T22:33:19.732Z,15.30
2018-10-06T22:35:47.928Z,15.20
2018-10-06T22:38:16.139Z,15.20
2018-10-06T22:40:44.345Z,15.20
2018-10-06T22:43:12.580Z,15.10
2018-10-06T22:45:40.755Z,15.10
2018-10-06T22:48:09.044Z,15.00
2018-10-06T22:50:37.283Z,14.90
2018-10-06T22:53:05.500Z,14.90
2018-10-06T22:55:33.716Z,14.90
2018-10-06T22:58:01.891Z,14.90
2018-10-06T23:00:30.069Z,15.00
2018-10-06T23:02:58.282Z,15.10
2018-10-06T23:05:26.432Z,15.20
2018-10-06T23:07:54.649Z,15.20
2018-10-06T23:10:22.941Z,15.30
2018-10-06T23:12:51.180Z,15.30
2018-10-06T23:15:19.388Z,15.30
2018-10-06T23:17:47.570Z,15.30
2018-10-06T23:20:15.820Z,15.30
2018-10-06T23:22:43.984Z,15.30
2018-10-06T23:25:12.246Z,15.30
2018-10-06T23:27:40.574Z,15.30
2018-10-06T23:30:08.811Z,15.30
2018-10-06T23:32:37.076Z,15.20
2018-10-06T23:35:05.415Z,15.30
2018-10-06T23:37:33.622Z,15.20
2018-10-06T23:40:01.832Z,15.20
2018-10-06T23:42:30.049Z,15.10
2018-10-06T23:44:58.264Z,15.10
2018-10-06T23:47:26.460Z,15.10
2018-10-06T23:49:54.806Z,15.00
2018-10-06T23:52:23.252Z,15.00
2018-10-06T23:54:51.420Z,15.10
2018-10-06T23:57:19.673Z,15.10
2018-10-06T23:59:47.841Z,15.10
